CYDF/YDF METAR and TAF weather

Enter ICAO airport designator
Station Type Date Time Source
CYDF METAR 2019/07/17 18:00 UTC NOAA

CYDF 171800Z 24006KT 210V270 15SM SCT060 SCT180 BKN210 28/14 A2974 RMK CU3AC1CI2 SLP072 DENSITY ALT 1800FT


Station Type Date Time Source
CYDF Decoded METAR 2019/07/17 18:00 UTC NOAA

Deer Lake, Nfld., Canada (CYDF) 49-13N 057-24W 22M
Jul 17, 2019 - 02:00 PM EDT / 2019.07.17 1800 UTC
Wind: from the WSW (240 degrees) at 7 MPH (6 KT) (direction variable):0
Visibility: 15 mile(s):0
Sky conditions: mostly cloudy
Temperature: 82 F (28 C)
Dew Point: 57 F (14 C)
Relative Humidity: 42%
Pressure (altimeter): 29.74 in. Hg (1007 hPa)
ob: CYDF 171800Z 24006KT 210V270 15SM SCT060 SCT180 BKN210 28/14 A2974 RMK CU3AC1CI2 SLP072 DENSITY ALT 1800FT
cycle: 18

Station Type Date Time Source
CYDF TAF 2019/07/17 14:42 UTC NOAA

TAF CYDF 171338Z 1714/1802 20004KT P6SM SCT060 BKN240
FM171800 21012KT P6SM BKN080
FM180100 22008KT P6SM -SHRA OVC020
RMK NXT FCST BY 172000Z

Example: see airport list